createdAt,value
2018-06-24T00:01:38.190Z,60.50
2018-06-24T00:08:44.508Z,61.30
2018-06-24T00:12:17.763Z,61.60
2018-06-24T00:15:51.043Z,61.80
2018-06-24T00:19:24.298Z,62.00
2018-06-24T00:22:58.200Z,62.10
2018-06-24T00:26:31.464Z,62.20
2018-06-24T00:30:05.244Z,62.20
2018-06-24T00:33:38.504Z,62.20
2018-06-24T00:37:11.777Z,62.20
2018-06-24T00:40:45.062Z,62.10
2018-06-24T00:44:18.816Z,62.00
2018-06-24T00:51:25.088Z,62.10
2018-06-24T00:54:58.303Z,62.20
2018-06-24T00:58:31.559Z,62.30
2018-06-24T01:02:04.791Z,62.60
2018-06-24T01:05:38.094Z,62.70
2018-06-24T01:09:11.320Z,63.00
2018-06-24T01:16:17.543Z,63.90
2018-06-24T01:19:50.782Z,64.30
2018-06-24T01:23:24.011Z,64.70
2018-06-24T01:26:57.249Z,65.00
2018-06-24T01:30:30.483Z,65.20
2018-06-24T01:34:03.719Z,65.50
2018-06-24T01:37:36.988Z,65.60
2018-06-24T01:41:10.283Z,65.90
2018-06-24T01:44:43.529Z,66.10
2018-06-24T01:48:16.769Z,66.10
2018-06-24T01:51:50.005Z,66.00
2018-06-24T01:58:56.238Z,65.40
2018-06-24T02:02:29.474Z,65.00
2018-06-24T02:06:02.730Z,64.80
2018-06-24T02:09:35.992Z,64.90
2018-06-24T02:16:42.275Z,64.90
2018-06-24T02:20:15.496Z,64.70
2018-06-24T02:27:21.715Z,64.00
2018-06-24T02:30:54.989Z,64.50
2018-06-24T02:34:28.275Z,63.50
2018-06-24T02:38:02.505Z,63.10
2018-06-24T02:41:35.742Z,63.00
2018-06-24T02:45:09.015Z,62.90
2018-06-24T02:48:42.676Z,62.70
2018-06-24T02:52:15.927Z,62.90
2018-06-24T02:59:22.176Z,63.30
2018-06-24T03:02:55.440Z,63.10
2018-06-24T03:06:28.723Z,63.30
2018-06-24T03:10:01.973Z,63.30
2018-06-24T03:13:35.208Z,63.50
2018-06-24T03:20:42.016Z,63.50
2018-06-24T03:24:15.251Z,63.70
2018-06-24T03:27:48.609Z,64.00
2018-06-24T03:31:21.859Z,64.00
2018-06-24T03:34:55.096Z,64.00
2018-06-24T03:38:28.544Z,64.00
2018-06-24T03:42:01.782Z,64.00
2018-06-24T03:45:35.267Z,63.90
2018-06-24T03:49:08.517Z,64.10
2018-06-24T03:52:41.760Z,64.10
2018-06-24T03:56:15.047Z,64.30
2018-06-24T03:59:48.305Z,64.40
2018-06-24T04:03:21.560Z,64.50
2018-06-24T04:06:54.813Z,64.40
2018-06-24T04:10:28.167Z,64.30
2018-06-24T04:14:01.422Z,64.30
2018-06-24T04:17:34.671Z,64.30
2018-06-24T04:21:08.244Z,65.00
2018-06-24T04:24:41.608Z,63.80
2018-06-24T04:28:14.916Z,63.60
2018-06-24T04:31:48.150Z,63.30
2018-06-24T04:35:21.419Z,63.30
2018-06-24T04:38:54.671Z,63.20
2018-06-24T04:42:27.993Z,63.10
2018-06-24T04:46:01.500Z,63.10
2018-06-24T04:49:34.779Z,63.00
2018-06-24T04:53:08.018Z,62.70
2018-06-24T04:56:41.239Z,62.30
2018-06-24T05:00:14.505Z,61.80
2018-06-24T05:03:47.748Z,61.70
2018-06-24T05:07:20.990Z,61.50
2018-06-24T05:14:27.321Z,61.00
2018-06-24T05:18:00.554Z,60.90
2018-06-24T05:21:33.817Z,60.90
2018-06-24T05:25:07.268Z,60.90
2018-06-24T05:28:40.583Z,60.80
2018-06-24T05:32:13.915Z,60.60
2018-06-24T05:35:47.209Z,60.00
2018-06-24T05:39:20.451Z,59.30
2018-06-24T05:46:26.893Z,59.10
2018-06-24T05:50:00.131Z,58.50
2018-06-24T05:53:33.362Z,58.10
2018-06-24T05:57:06.595Z,58.10
2018-06-24T06:00:39.866Z,58.10
2018-06-24T06:04:13.113Z,57.70
2018-06-24T06:07:46.324Z,57.50
2018-06-24T06:11:19.563Z,56.90
2018-06-24T06:14:52.828Z,56.40
2018-06-24T06:18:26.060Z,56.20
2018-06-24T06:21:59.476Z,55.90
2018-06-24T06:25:32.829Z,55.90
2018-06-24T06:29:06.062Z,55.70
2018-06-24T06:32:39.307Z,55.40
2018-06-24T06:36:12.693Z,55.10
2018-06-24T06:39:46.020Z,54.40
2018-06-24T06:43:19.270Z,54.10
2018-06-24T06:46:52.511Z,53.90
2018-06-24T06:50:26.103Z,53.60
2018-06-24T06:53:59.455Z,52.30
2018-06-24T06:57:32.984Z,51.90
2018-06-24T07:01:06.232Z,52.20
2018-06-24T07:04:39.565Z,51.30
2018-06-24T07:08:13.022Z,51.10
2018-06-24T07:11:46.291Z,50.30
2018-06-24T07:15:19.884Z,50.50
2018-06-24T07:26:00.097Z,49.80
2018-06-24T07:33:06.458Z,48.50
2018-06-24T07:36:39.728Z,48.20
2018-06-24T07:40:12.972Z,47.40
2018-06-24T07:43:46.407Z,47.20
2018-06-24T07:47:19.936Z,47.40
2018-06-24T07:50:53.182Z,46.90
2018-06-24T07:54:26.613Z,46.70
2018-06-24T08:01:33.033Z,45.70
2018-06-24T08:05:06.728Z,46.00
2018-06-24T08:08:40.024Z,46.20
2018-06-24T08:12:13.272Z,46.60
2018-06-24T08:15:46.591Z,46.40
2018-06-24T08:19:19.953Z,46.50
2018-06-24T08:22:53.923Z,46.80
2018-06-24T08:26:27.228Z,46.70
2018-06-24T08:33:33.564Z,45.50
2018-06-24T08:37:06.887Z,44.60
2018-06-24T08:40:40.208Z,44.90
2018-06-24T08:44:13.473Z,43.30
2018-06-24T08:47:46.764Z,42.70
2018-06-24T08:51:20.041Z,41.60
2018-06-24T08:58:26.357Z,42.00
2018-06-24T09:01:59.674Z,41.80
2018-06-24T09:05:32.964Z,42.30
2018-06-24T09:09:08.720Z,42.80
2018-06-24T09:12:41.976Z,43.10
2018-06-24T09:16:15.652Z,43.40
2018-06-24T09:19:48.947Z,43.40
2018-06-24T09:23:22.280Z,44.10
2018-06-24T09:26:55.557Z,44.50
2018-06-24T09:30:28.857Z,44.70
2018-06-24T09:34:02.197Z,44.80
2018-06-24T09:37:35.525Z,45.00
2018-06-24T09:41:08.761Z,45.50
2018-06-24T09:44:42.080Z,45.70
2018-06-24T09:48:15.398Z,45.70
2018-06-24T09:51:48.688Z,45.10
2018-06-24T09:55:22.011Z,44.50
2018-06-24T09:58:55.361Z,44.20
2018-06-24T10:02:28.636Z,43.70
2018-06-24T10:06:01.865Z,42.90
2018-06-24T10:09:35.188Z,42.50
2018-06-24T10:13:08.451Z,42.10
2018-06-24T10:16:41.733Z,41.50
2018-06-24T10:20:15.064Z,41.10
2018-06-24T10:23:48.357Z,40.80
2018-06-24T10:27:21.680Z,40.20
2018-06-24T10:30:54.940Z,39.60
2018-06-24T10:34:28.195Z,39.40
2018-06-24T10:38:01.552Z,39.10
2018-06-24T10:41:34.906Z,38.70
2018-06-24T10:45:08.177Z,38.50
2018-06-24T10:48:45.899Z,38.40
2018-06-24T10:52:19.372Z,38.00
2018-06-24T10:55:53.094Z,37.90
2018-06-24T10:59:26.563Z,37.90
2018-06-24T11:03:00.027Z,38.20
2018-06-24T11:06:33.735Z,37.80
2018-06-24T11:10:06.968Z,37.70
2018-06-24T11:17:13.250Z,37.30
2018-06-24T11:20:46.557Z,36.70
2018-06-24T11:24:19.815Z,36.90
2018-06-24T11:27:53.075Z,37.30
2018-06-24T11:31:26.386Z,37.80
2018-06-24T11:34:59.712Z,38.00
2018-06-24T11:38:33.108Z,38.40
2018-06-24T11:42:06.464Z,38.90
2018-06-24T11:45:39.732Z,38.90
2018-06-24T11:49:13.236Z,38.80
2018-06-24T11:52:46.540Z,39.20
2018-06-24T11:56:19.840Z,39.30
2018-06-24T11:59:53.232Z,39.40
2018-06-24T12:03:26.669Z,39.00
2018-06-24T12:07:00.030Z,39.10
2018-06-24T12:10:33.452Z,38.90
2018-06-24T12:14:06.729Z,37.60
2018-06-24T12:17:40.593Z,38.10
2018-06-24T12:21:13.925Z,38.60
2018-06-24T12:24:47.199Z,38.80
2018-06-24T12:28:20.591Z,38.40
2018-06-24T12:31:54.903Z,37.90
2018-06-24T12:35:28.656Z,37.40
2018-06-24T12:39:02.298Z,37.20
2018-06-24T12:42:35.599Z,36.30
2018-06-24T12:46:08.926Z,36.30
2018-06-24T12:49:42.215Z,36.90
2018-06-24T12:53:15.515Z,36.90
2018-06-24T12:56:48.815Z,36.90
2018-06-24T13:00:22.861Z,36.60
2018-06-24T13:03:56.353Z,36.80
2018-06-24T13:07:29.716Z,36.90
2018-06-24T13:11:03.004Z,37.20
2018-06-24T13:14:36.401Z,36.80
2018-06-24T13:18:09.676Z,36.80
2018-06-24T13:21:42.936Z,36.00
2018-06-24T13:25:16.199Z,34.10
2018-06-24T13:28:49.480Z,34.30
2018-06-24T13:32:22.737Z,34.30
2018-06-24T13:35:56.053Z,34.10
2018-06-24T13:39:29.349Z,33.90
2018-06-24T13:43:02.670Z,32.90
2018-06-24T13:46:36.231Z,33.10
2018-06-24T13:50:09.650Z,33.80
2018-06-24T13:53:42.932Z,34.30
2018-06-24T13:57:16.267Z,34.30
2018-06-24T14:00:49.639Z,34.60
2018-06-24T14:04:22.976Z,34.60
2018-06-24T14:07:56.324Z,34.30
2018-06-24T14:11:30.113Z,33.40
2018-06-24T14:15:04.152Z,34.20
2018-06-24T14:18:37.433Z,34.50
2018-06-24T14:22:10.701Z,34.70
2018-06-24T14:25:43.966Z,34.70
2018-06-24T14:29:17.319Z,34.20
2018-06-24T14:32:50.621Z,33.90
2018-06-24T14:36:24.857Z,33.80
2018-06-24T14:39:58.696Z,33.20
2018-06-24T14:43:31.981Z,33.10
2018-06-24T14:47:05.236Z,32.60
2018-06-24T14:50:38.532Z,32.00
2018-06-24T14:54:11.906Z,32.00
2018-06-24T14:57:45.199Z,31.60
2018-06-24T15:01:18.523Z,31.00
2018-06-24T15:04:51.796Z,31.40
2018-06-24T15:08:25.151Z,30.80
2018-06-24T15:11:58.560Z,30.90
2018-06-24T15:15:31.942Z,31.00
2018-06-24T15:19:05.651Z,32.10
2018-06-24T15:22:38.938Z,33.00
2018-06-24T15:26:12.196Z,33.20
2018-06-24T15:29:45.635Z,32.10
2018-06-24T15:33:18.880Z,31.70
2018-06-24T15:36:52.211Z,31.10
2018-06-24T15:40:25.439Z,30.40
2018-06-24T15:43:58.690Z,30.60
2018-06-24T15:47:31.991Z,31.20
2018-06-24T15:51:05.340Z,31.80
2018-06-24T15:54:38.576Z,32.20
2018-06-24T15:58:12.010Z,32.50
2018-06-24T16:05:18.511Z,33.70
2018-06-24T16:08:51.831Z,34.40
2018-06-24T16:12:25.074Z,35.10
2018-06-24T16:15:58.382Z,35.20
2018-06-24T16:19:31.681Z,35.40
2018-06-24T16:23:05.885Z,34.90
2018-06-24T16:26:39.426Z,35.00
2018-06-24T16:30:12.668Z,35.30
2018-06-24T16:33:45.996Z,35.90
2018-06-24T16:37:19.314Z,36.40
2018-06-24T16:40:52.551Z,36.60
2018-06-24T16:48:00.084Z,36.70
2018-06-24T16:51:33.333Z,36.70
2018-06-24T16:55:06.697Z,36.90
2018-06-24T16:58:40.399Z,37.50
2018-06-24T17:05:46.397Z,38.50
2018-06-24T17:09:19.735Z,38.10
2018-06-24T17:12:53.000Z,38.00
2018-06-24T17:16:26.320Z,38.00
2018-06-24T17:19:59.615Z,37.50
2018-06-24T17:23:32.856Z,37.30
2018-06-24T17:27:06.811Z,37.20
2018-06-24T17:34:13.040Z,36.60
2018-06-24T17:37:46.895Z,36.00
2018-06-24T17:41:20.160Z,36.00
2018-06-24T17:44:53.468Z,36.30
2018-06-24T17:48:26.725Z,36.40
2018-06-24T17:52:00.019Z,36.40
2018-06-24T17:59:06.335Z,36.50
2018-06-24T18:02:39.652Z,36.50
2018-06-24T18:06:13.413Z,36.50
2018-06-24T18:09:46.736Z,36.70
2018-06-24T18:16:54.516Z,37.30
2018-06-24T18:20:27.928Z,37.70
2018-06-24T18:24:01.244Z,38.10
2018-06-24T18:27:34.455Z,38.30
2018-06-24T18:31:07.754Z,38.50
2018-06-24T18:34:41.010Z,38.70
2018-06-24T18:38:14.281Z,39.00
2018-06-24T18:41:47.612Z,39.40
2018-06-24T18:45:20.975Z,39.80
2018-06-24T18:48:54.252Z,40.20
2018-06-24T18:56:00.791Z,40.90
2018-06-24T18:59:34.603Z,41.20
2018-06-24T19:03:07.885Z,41.40
2018-06-24T19:10:14.211Z,42.00
2018-06-24T19:13:47.459Z,42.80
2018-06-24T19:17:20.840Z,42.40
2018-06-24T19:20:54.120Z,42.20
2018-06-24T19:24:28.108Z,42.80
2018-06-24T19:28:01.413Z,43.00
2018-06-24T19:31:34.707Z,43.20
2018-06-24T19:35:07.984Z,43.30
2018-06-24T19:38:41.229Z,43.50
2018-06-24T19:42:14.976Z,43.60
2018-06-24T19:45:48.225Z,43.80
2018-06-24T19:49:21.542Z,44.00
2018-06-24T19:52:54.972Z,44.00
2018-06-24T19:56:28.308Z,44.10
2018-06-24T20:00:01.773Z,45.10
2018-06-24T20:03:35.415Z,44.50
2018-06-24T20:07:09.492Z,44.80
2018-06-24T20:10:42.767Z,46.00
2018-06-24T20:14:16.336Z,45.70
2018-06-24T20:17:50.048Z,46.00
2018-06-24T20:21:23.467Z,46.30
2018-06-24T20:24:56.723Z,46.60
2018-06-24T20:28:30.047Z,46.70
2018-06-24T20:32:03.351Z,46.80
2018-06-24T20:35:36.645Z,47.00
2018-06-24T20:39:10.212Z,47.20
2018-06-24T20:42:43.875Z,47.30
2018-06-24T20:46:17.160Z,47.30
2018-06-24T20:49:50.608Z,46.70
2018-06-24T20:53:24.090Z,46.20
2018-06-24T20:56:57.461Z,45.90
2018-06-24T21:00:30.748Z,45.70
2018-06-24T21:04:04.383Z,45.70
2018-06-24T21:07:37.619Z,45.90
2018-06-24T21:14:43.895Z,46.40
2018-06-24T21:18:17.191Z,46.80
2018-06-24T21:21:50.449Z,46.90
2018-06-24T21:25:23.715Z,47.30
2018-06-24T21:28:57.327Z,47.50
2018-06-24T21:32:31.236Z,47.80
2018-06-24T21:36:04.572Z,48.00
2018-06-24T21:39:37.858Z,48.20
2018-06-24T21:43:11.240Z,48.40
2018-06-24T21:46:44.568Z,48.50
2018-06-24T21:50:17.806Z,48.50
2018-06-24T21:53:51.063Z,48.60
2018-06-24T21:57:24.385Z,48.70
2018-06-24T22:00:57.625Z,48.70
2018-06-24T22:04:30.866Z,48.70
2018-06-24T22:08:04.148Z,48.70
2018-06-24T22:15:10.704Z,48.80
2018-06-24T22:18:43.940Z,48.80
2018-06-24T22:29:23.152Z,49.10
2018-06-24T22:32:56.408Z,49.20
2018-06-24T22:36:29.720Z,49.40
2018-06-24T22:40:02.960Z,49.50
2018-06-24T22:43:36.251Z,49.60
2018-06-24T22:47:09.500Z,49.60
2018-06-24T22:50:42.750Z,49.70
2018-06-24T22:54:16.019Z,49.80
2018-06-24T22:57:49.273Z,50.00
2018-06-24T23:01:22.990Z,50.10
2018-06-24T23:04:56.287Z,50.30
2018-06-24T23:08:29.536Z,50.50
2018-06-24T23:12:02.858Z,50.60
2018-06-24T23:15:36.087Z,50.70
2018-06-24T23:19:09.347Z,50.80
2018-06-24T23:22:42.575Z,50.90
2018-06-24T23:26:15.824Z,51.00
2018-06-24T23:29:49.474Z,51.20
2018-06-24T23:33:22.742Z,51.20
2018-06-24T23:40:28.972Z,51.50
2018-06-24T23:44:02.259Z,51.60
2018-06-24T23:47:35.764Z,51.70
2018-06-24T23:51:09.115Z,51.90
2018-06-24T23:54:42.390Z,52.00
2018-06-24T23:58:15.632Z,52.10
